This is the latest recevied weather packets stored in our database for station/object W4EDL-13. If no packets are shown the sender has not sent any weather packets the latest 10 day(s).
| Time | Temp. | Humidity | Pressure | Rain* | Wind** | Luminosity | Snow |
|---|---|---|---|---|---|---|---|
| 1777904831 | 26.11° C | 52% | 1008.6 hPa | - | - | - | - |
| 1777904251 | 25.56° C | 54% | 1008.6 hPa | - | - | - | - |
| 1777904231 | 26.11° C | 53% | 1008.6 hPa | - | - | - | - |
| 1777903650 | 27.78° C | 50% | 1008.3 hPa | - | - | - | - |
| 1777903630 | 27.78° C | 50% | 1008.3 hPa | - | - | - | - |
| 1777903049 | 26.67° C | 54% | 1008.3 hPa | - | - | - | - |
| 1777903029 | 26.67° C | 54% | 1008.3 hPa | - | - | - | - |
| 1777902449 | 23.89° C | 58% | 1008.3 hPa | - | - | - | - |
| 1777902429 | 23.89° C | 58% | 1008.3 hPa | - | - | - | - |
| 1777901848 | 25° C | 57% | 1008.3 hPa | - | - | - | - |
| 1777901248 | 25.56° C | 56% | 1008.3 hPa | - | - | - | - |
| 1777901228 | 25° C | 57% | 1008.3 hPa | - | - | - | - |
| 1777900647 | 25.56° C | 57% | 1008 hPa | - | - | - | - |
| 1777900627 | 25.56° C | 57% | 1008 hPa | - | - | - | - |
| 1777900046 | 25.56° C | 53% | 1008 hPa | - | - | - | - |
| 1777900027 | 25.56° C | 53% | 1008 hPa | - | - | - | - |
| 1777899446 | 25° C | 54% | 1007.6 hPa | - | - | - | - |
| 1777899426 | 25° C | 54% | 1007.6 hPa | - | - | - | - |
| 1777898846 | 25° C | 58% | 1007.6 hPa | - | - | - | - |
| 1777898825 | 25° C | 58% | 1007.6 hPa | - | - | - | - |
| 1777898245 | 24.44° C | 57% | 1007.6 hPa | - | - | - | - |
| 1777898225 | 24.44° C | 57% | 1007.6 hPa | - | - | - | - |
| 1777897644 | 24.44° C | 61% | 1007.6 hPa | - | - | - | - |
| 1777897624 | 23.89° C | 61% | 1007.6 hPa | - | - | - | - |
| 1777897044 | 22.78° C | 66% | 1007.6 hPa | - | - | - | - |
* Rain since midnight (hover to see other rain measurements)
** Current wind speed in m/s (hover to see current wind gust speed)